createdAt,value
2023-03-17T00:02:37.008Z,44.35
2023-03-17T00:06:36.922Z,28.83
2023-03-17T00:10:36.892Z,38.01
2023-03-17T00:14:36.826Z,34.81
2023-03-17T00:18:36.792Z,37.82
2023-03-17T00:22:36.773Z,42.23
2023-03-17T00:26:36.876Z,30.97
2023-03-17T00:30:37.142Z,34.77
2023-03-17T00:34:37.301Z,29.52
2023-03-17T00:38:37.618Z,29.11
2023-03-17T00:42:37.755Z,26.08
2023-03-17T00:46:38.263Z,31.40
2023-03-17T00:50:38.141Z,27.33
2023-03-17T00:54:38.116Z,35.58
2023-03-17T00:58:38.094Z,26.28
2023-03-17T01:02:38.053Z,26.43
2023-03-17T01:06:38.012Z,27.32
2023-03-17T01:10:37.967Z,25.00
2023-03-17T01:14:38.183Z,29.98
2023-03-17T01:18:37.994Z,28.26
2023-03-17T01:22:37.877Z,27.52
2023-03-17T01:26:37.848Z,42.76
2023-03-17T01:30:37.823Z,30.05
2023-03-17T01:34:37.799Z,36.51
2023-03-17T01:38:37.784Z,31.28
2023-03-17T01:42:37.684Z,29.79
2023-03-17T01:46:37.663Z,35.54
2023-03-17T01:50:37.627Z,27.61
2023-03-17T01:54:37.611Z,29.23
2023-03-17T01:58:37.578Z,32.07
2023-03-17T02:02:37.517Z,29.45
2023-03-17T02:06:47.472Z,29.32
2023-03-17T02:10:38.473Z,29.91
2023-03-17T02:14:38.039Z,26.96
2023-03-17T02:18:37.432Z,29.48
2023-03-17T02:22:37.403Z,30.21
2023-03-17T02:26:37.377Z,32.36
2023-03-17T02:30:37.355Z,31.06
2023-03-17T02:34:37.309Z,33.74
2023-03-17T02:38:37.260Z,30.25
2023-03-17T02:42:37.240Z,27.00
2023-03-17T02:46:37.238Z,28.87
2023-03-17T02:50:37.186Z,29.11
2023-03-17T02:54:37.245Z,27.78
2023-03-17T02:58:37.198Z,28.35
2023-03-17T03:02:37.167Z,28.28
2023-03-17T03:06:37.109Z,27.25
2023-03-17T03:10:37.074Z,29.42
2023-03-17T03:14:37.057Z,31.51
2023-03-17T03:18:37.017Z,34.04
2023-03-17T03:22:37.112Z,34.09
2023-03-17T03:26:36.963Z,32.47
2023-03-17T03:30:36.906Z,33.67
2023-03-17T03:34:37.056Z,26.34
2023-03-17T03:38:37.052Z,30.63
2023-03-17T03:42:36.995Z,28.81
2023-03-17T03:46:37.052Z,33.09
2023-03-17T03:50:36.954Z,28.57
2023-03-17T03:54:36.879Z,31.74
2023-03-17T03:58:37.085Z,25.42
2023-03-17T04:02:36.876Z,33.24
2023-03-17T04:06:36.757Z,31.82
2023-03-17T04:10:36.732Z,29.67
2023-03-17T04:14:36.704Z,28.11
2023-03-17T04:18:36.928Z,32.42
2023-03-17T04:22:36.957Z,39.10
2023-03-17T04:26:37.194Z,33.16
2023-03-17T04:30:37.343Z,43.30
2023-03-17T04:34:37.545Z,39.86
2023-03-17T04:38:37.533Z,41.95
2023-03-17T04:42:37.635Z,27.01
2023-03-17T04:46:37.464Z,33.28
2023-03-17T04:50:37.378Z,43.43
2023-03-17T04:54:37.408Z,29.15
2023-03-17T04:58:37.382Z,28.86
2023-03-17T05:02:37.278Z,30.33
2023-03-17T05:06:37.244Z,29.03
2023-03-17T05:10:37.233Z,29.84
2023-03-17T05:14:37.258Z,29.91
2023-03-17T05:18:37.189Z,30.38
2023-03-17T05:22:37.121Z,33.07
2023-03-17T05:26:37.091Z,26.17
2023-03-17T05:30:37.086Z,29.41
2023-03-17T05:34:37.021Z,38.73
2023-03-17T05:38:36.992Z,29.32
2023-03-17T05:42:36.970Z,29.14
2023-03-17T05:46:37.010Z,26.21
2023-03-17T05:50:36.956Z,27.68
2023-03-17T05:54:36.985Z,27.99
2023-03-17T05:58:37.163Z,25.00
2023-03-17T06:02:37.422Z,26.83
2023-03-17T06:06:37.620Z,29.80
2023-03-17T06:10:37.805Z,28.48
2023-03-17T06:14:38.036Z,32.81
2023-03-17T06:18:38.199Z,27.65
2023-03-17T06:22:46.272Z,27.25
2023-03-17T06:26:39.661Z,29.13
2023-03-17T06:30:40.614Z,27.02
2023-03-17T06:34:38.544Z,28.59
2023-03-17T06:38:39.361Z,34.46
2023-03-17T06:42:38.315Z,42.44
2023-03-17T06:46:38.314Z,50.00
2023-03-17T06:50:38.212Z,25.10
2023-03-17T06:54:38.218Z,27.35
2023-03-17T06:58:38.271Z,27.70
2023-03-17T07:02:38.762Z,34.99
2023-03-17T07:06:38.014Z,25.65
2023-03-17T07:10:38.452Z,26.30
2023-03-17T07:14:38.263Z,26.26
2023-03-17T07:18:38.071Z,30.86
2023-03-17T07:22:38.120Z,26.96
2023-03-17T07:26:37.986Z,31.49
2023-03-17T07:30:38.827Z,42.77
2023-03-17T07:34:38.396Z,49.39
2023-03-17T07:38:38.406Z,90.32
2023-03-17T07:42:38.341Z,69.94
2023-03-17T07:46:38.247Z,53.86
2023-03-17T07:50:38.443Z,32.10
2023-03-17T07:54:38.689Z,30.17
2023-03-17T07:58:38.804Z,25.00
2023-03-17T08:02:38.324Z,29.37
2023-03-17T08:06:38.032Z,29.00
2023-03-17T08:10:38.200Z,25.78
2023-03-17T08:14:38.014Z,29.17
2023-03-17T08:18:37.951Z,34.12
2023-03-17T08:22:38.009Z,36.05
2023-03-17T08:26:38.241Z,51.80
2023-03-17T08:30:39.189Z,61.59
2023-03-17T08:34:38.140Z,70.56
2023-03-17T08:38:38.122Z,65.80
2023-03-17T08:42:38.393Z,67.93
2023-03-17T08:46:37.972Z,77.49
2023-03-17T08:50:37.946Z,92.39
2023-03-17T08:54:37.973Z,96.84
2023-03-17T08:58:37.932Z,104.53
2023-03-17T09:02:40.760Z,128.91
2023-03-17T09:06:38.797Z,127.86
2023-03-17T09:10:37.796Z,128.08
2023-03-17T09:14:43.740Z,129.43
2023-03-17T09:18:38.752Z,128.40
2023-03-17T09:22:37.672Z,125.82
2023-03-17T09:26:38.870Z,118.12
2023-03-17T09:30:38.074Z,119.67
2023-03-17T09:34:38.148Z,120.79
2023-03-17T09:38:38.233Z,96.59
2023-03-17T09:42:38.172Z,96.57
2023-03-17T09:46:38.281Z,117.46
2023-03-17T09:50:38.196Z,95.19
2023-03-17T09:54:38.199Z,81.75
2023-03-17T09:58:38.744Z,75.53
2023-03-17T10:02:38.132Z,80.41
2023-03-17T10:06:38.226Z,74.28
2023-03-17T10:10:38.092Z,80.03
2023-03-17T10:14:38.165Z,75.59
2023-03-17T10:18:38.349Z,69.02
2023-03-17T10:22:38.374Z,63.14
2023-03-17T10:26:38.485Z,63.50
2023-03-17T10:30:39.634Z,51.76
2023-03-17T10:34:39.448Z,44.44
2023-03-17T10:38:39.144Z,82.61
2023-03-17T10:42:39.010Z,66.94
2023-03-17T10:46:39.071Z,66.34
2023-03-17T10:50:38.961Z,246.94
2023-03-17T10:54:39.304Z,175.82
2023-03-17T10:58:39.064Z,137.32
2023-03-17T11:02:38.818Z,110.87
2023-03-17T11:06:38.786Z,107.02
2023-03-17T11:10:38.713Z,97.48
2023-03-17T11:14:38.680Z,89.56
2023-03-17T11:18:38.739Z,78.22
2023-03-17T11:22:38.675Z,82.95
2023-03-17T11:26:38.925Z,81.67
2023-03-17T11:30:38.862Z,71.58
2023-03-17T11:34:39.795Z,78.24
2023-03-17T11:38:38.773Z,75.32
2023-03-17T11:42:38.754Z,79.71
2023-03-17T11:46:38.837Z,80.31
2023-03-17T11:50:38.876Z,85.93
2023-03-17T11:54:38.700Z,83.03
2023-03-17T11:58:38.901Z,85.28
2023-03-17T12:02:38.908Z,86.27
2023-03-17T12:06:38.838Z,82.08
2023-03-17T12:10:38.776Z,82.13
2023-03-17T12:14:38.672Z,81.90
2023-03-17T12:18:38.691Z,87.30
2023-03-17T12:22:38.608Z,80.19
2023-03-17T12:26:38.643Z,78.86
2023-03-17T12:30:38.653Z,82.33
2023-03-17T12:34:38.538Z,83.75
2023-03-17T12:38:38.636Z,84.17
2023-03-17T12:42:38.643Z,91.03
2023-03-17T12:46:38.595Z,94.22
2023-03-17T12:50:38.600Z,95.72
2023-03-17T12:54:38.553Z,98.73
2023-03-17T12:58:38.447Z,95.90
2023-03-17T13:02:38.423Z,99.22
2023-03-17T13:06:38.361Z,98.41
2023-03-17T13:10:38.360Z,97.68
2023-03-17T13:14:38.310Z,97.45
2023-03-17T13:18:38.268Z,97.10
2023-03-17T13:22:38.295Z,98.90
2023-03-17T13:26:38.223Z,99.28
2023-03-17T13:30:38.139Z,100.16
2023-03-17T13:34:38.105Z,99.28
2023-03-17T13:38:38.342Z,99.50
2023-03-17T13:42:38.150Z,99.00
2023-03-17T13:46:38.330Z,97.65
2023-03-17T13:50:38.182Z,96.83
2023-03-17T13:54:38.137Z,98.48
2023-03-17T13:58:38.205Z,96.86
2023-03-17T14:02:38.936Z,98.44
2023-03-17T14:06:38.096Z,104.22
2023-03-17T14:10:38.063Z,113.82
2023-03-17T14:14:38.034Z,119.08
2023-03-17T14:18:38.091Z,132.92
2023-03-17T14:22:38.049Z,138.06
2023-03-17T14:26:38.036Z,127.41
2023-03-17T14:30:37.943Z,128.38
2023-03-17T14:34:37.952Z,126.06
2023-03-17T14:38:37.951Z,124.69
2023-03-17T14:42:37.916Z,122.50
2023-03-17T14:46:38.000Z,119.07
2023-03-17T14:50:37.942Z,121.48
2023-03-17T14:54:37.941Z,119.25
2023-03-17T14:58:37.938Z,114.54
2023-03-17T15:02:38.139Z,113.80
2023-03-17T15:06:38.865Z,111.88
2023-03-17T15:10:38.055Z,115.63
2023-03-17T15:14:38.044Z,109.73
2023-03-17T15:18:38.204Z,105.98
2023-03-17T15:22:38.175Z,101.75
2023-03-17T15:26:38.240Z,95.58
2023-03-17T15:30:47.061Z,81.94
2023-03-17T15:34:39.118Z,91.09
2023-03-17T15:38:38.441Z,88.41
2023-03-17T15:42:38.008Z,77.92
2023-03-17T15:46:38.001Z,71.50
2023-03-17T15:50:37.950Z,71.34
2023-03-17T15:54:37.935Z,65.89
2023-03-17T15:58:37.940Z,44.84
2023-03-17T16:02:37.914Z,53.37
2023-03-17T16:06:37.869Z,58.79
2023-03-17T16:10:37.909Z,47.81
2023-03-17T16:14:37.979Z,65.71
2023-03-17T16:18:38.000Z,77.65
2023-03-17T16:22:38.107Z,69.84
2023-03-17T16:26:38.332Z,64.07
2023-03-17T16:30:38.240Z,63.29
2023-03-17T16:34:38.271Z,67.80
2023-03-17T16:38:38.345Z,66.20
2023-03-17T16:42:38.427Z,59.06
2023-03-17T16:46:38.480Z,63.07
2023-03-17T16:50:38.601Z,60.67
2023-03-17T16:54:38.666Z,60.24
2023-03-17T16:58:38.736Z,48.30
2023-03-17T17:02:38.943Z,59.45
2023-03-17T17:06:38.984Z,64.53
2023-03-17T17:10:39.031Z,59.69
2023-03-17T17:14:39.124Z,61.88
2023-03-17T17:18:39.289Z,69.78
2023-03-17T17:22:39.290Z,58.44
2023-03-17T17:26:39.450Z,53.27
2023-03-17T17:30:39.506Z,63.59
2023-03-17T17:34:39.646Z,47.15
2023-03-17T17:38:39.790Z,57.12
2023-03-17T17:42:39.850Z,53.72
2023-03-17T17:46:40.009Z,48.15
2023-03-17T17:50:40.100Z,58.99
2023-03-17T17:54:40.262Z,48.47
2023-03-17T17:58:40.445Z,50.56
2023-03-17T18:02:40.537Z,69.01
2023-03-17T18:06:40.709Z,76.18
2023-03-17T18:10:40.787Z,46.33
2023-03-17T18:14:40.984Z,43.97
2023-03-17T18:18:41.132Z,42.90
2023-03-17T18:22:41.217Z,37.47
2023-03-17T18:26:41.383Z,42.58
2023-03-17T18:30:42.408Z,41.76
2023-03-17T18:34:41.659Z,47.51
2023-03-17T18:38:41.833Z,40.79
2023-03-17T18:42:42.086Z,47.80
2023-03-17T18:46:42.207Z,38.05
2023-03-17T18:50:44.961Z,40.75
2023-03-17T18:54:42.236Z,41.14
2023-03-17T18:58:42.291Z,47.16
2023-03-17T19:02:42.188Z,52.32
2023-03-17T19:06:42.169Z,48.48
2023-03-17T19:10:42.508Z,68.40
2023-03-17T19:14:42.069Z,50.60
2023-03-17T19:18:42.388Z,58.95
2023-03-17T19:22:42.514Z,56.22
2023-03-17T19:26:42.009Z,54.79
2023-03-17T19:30:41.899Z,61.32
2023-03-17T19:34:41.911Z,55.34
2023-03-17T19:38:41.852Z,52.51
2023-03-17T19:42:41.866Z,51.12
2023-03-17T19:46:42.076Z,52.52
2023-03-17T19:50:42.229Z,53.77
2023-03-17T19:54:42.408Z,51.88
2023-03-17T19:58:42.534Z,50.71
2023-03-17T20:02:42.778Z,52.35
2023-03-17T20:06:42.956Z,51.12
2023-03-17T20:10:43.138Z,50.49
2023-03-17T20:14:43.290Z,49.79
2023-03-17T20:18:43.430Z,54.02
2023-03-17T20:22:43.655Z,52.94
2023-03-17T20:26:43.849Z,46.50
2023-03-17T20:30:44.022Z,51.23
2023-03-17T20:34:44.175Z,47.55
2023-03-17T20:38:44.460Z,50.10
2023-03-17T20:42:44.594Z,49.88
2023-03-17T20:46:44.887Z,47.86
2023-03-17T20:50:45.027Z,45.78
2023-03-17T20:54:45.511Z,51.18
2023-03-17T20:58:45.449Z,43.83
2023-03-17T21:02:45.780Z,40.62
2023-03-17T21:06:45.851Z,39.48
2023-03-17T21:10:46.058Z,41.32
2023-03-17T21:14:46.266Z,40.28
2023-03-17T21:18:46.477Z,41.95
2023-03-17T21:22:47.039Z,41.25
2023-03-17T21:26:46.885Z,41.54
2023-03-17T21:30:47.105Z,44.92
2023-03-17T21:34:47.333Z,35.81
2023-03-17T21:38:47.563Z,35.57
2023-03-17T21:42:47.846Z,34.98
2023-03-17T21:46:48.096Z,38.05
2023-03-17T21:50:47.814Z,34.63
2023-03-17T21:54:47.656Z,34.65
2023-03-17T21:58:47.624Z,31.36
2023-03-17T22:02:47.632Z,30.51
2023-03-17T22:06:47.568Z,30.44
2023-03-17T22:10:47.558Z,28.70
2023-03-17T22:14:47.467Z,31.26
2023-03-17T22:18:47.498Z,32.28
2023-03-17T22:22:47.417Z,27.75
2023-03-17T22:26:47.436Z,26.04
2023-03-17T22:30:47.360Z,44.05
2023-03-17T22:34:47.348Z,30.70
2023-03-17T22:38:47.295Z,32.06
2023-03-17T22:42:47.354Z,28.11
2023-03-17T22:46:47.258Z,32.92
2023-03-17T22:50:47.204Z,28.92
2023-03-17T22:54:47.137Z,31.81
2023-03-17T22:58:48.034Z,30.55
2023-03-17T23:02:47.288Z,36.68
2023-03-17T23:06:47.583Z,26.96
2023-03-17T23:10:47.240Z,26.60
2023-03-17T23:14:47.260Z,26.92
2023-03-17T23:18:47.232Z,34.73
2023-03-17T23:22:47.166Z,29.64
2023-03-17T23:26:47.150Z,25.14
2023-03-17T23:30:47.076Z,28.87
2023-03-17T23:34:47.028Z,28.02
2023-03-17T23:38:47.003Z,25.90
2023-03-17T23:42:47.062Z,25.69
2023-03-17T23:46:46.999Z,29.33
2023-03-17T23:50:46.953Z,26.64
2023-03-17T23:54:46.931Z,28.36
2023-03-17T23:58:46.857Z,27.25
